Terminal Aerodrome Forecast
Issued by NWS

Home | Current Version | Previous Version | Text Only | Print | Product List | Glossary On
Versions: 1 2 3 4 5 6 7 8 9 10 11 12 13 14 15 16
082
FTUS43 KLSX 250532
TAFUIN
TAF
KUIN 250532Z 2506/2606 31018G24KT P6SM VCSH OVC015
      TEMPO 2506/2509 6SM -SN
     FM250900 31018G25KT P6SM OVC020
     FM251300 31017G25KT P6SM SCT015 BKN040
     FM251500 31015G23KT P6SM FEW150
     FM252200 30010KT P6SM FEW150
     FM260100 VRB04KT P6SM FEW250=

USA.gov is the U.S. government's official web portal to all federal, state and local government web resources and services.